Terminal Aerodrome Forecast
Issued by NWS

Home | Current Version | Previous Version | Text Only | Print | Product List | Glossary On
Versions: 1 2 3 4 5 6 7 8 9 10 11 12 13 14 15 16 17 18 19 20 21 22 23 24 25 26 27 28
000
FTUS43 KSGF 281100
TAFJLN
TAF
KJLN 281120Z 2812/2912 09004KT P6SM SCT060
     FM281600 12006KT P6SM VCTS OVC050CB
      TEMPO 2818/2822 4SM -TSRA BR OVC040CB
     FM290200 16009KT P6SM OVC100
     FM290700 15008KT P6SM OVC100 WS020/21036KT=

USA.gov is the U.S. government's official web portal to all federal, state and local government web resources and services.